sensor_id;sensor_type;location;lat;lon;timestamp;P1;durP1;ratioP1;P2;durP2;ratioP2
305;SDS011;137;48.578;9.180;2022-08-11T00:02:25;2.40;;;1.67;;
305;SDS011;137;48.578;9.180;2022-08-11T00:04:53;4.90;;;1.80;;
305;SDS011;137;48.578;9.180;2022-08-11T00:07:24;1.50;;;1.40;;
305;SDS011;137;48.578;9.180;2022-08-11T00:09:52;2.13;;;1.83;;
305;SDS011;137;48.578;9.180;2022-08-11T00:12:19;1.77;;;1.40;;
305;SDS011;137;48.578;9.180;2022-08-11T00:14:47;1.77;;;1.60;;
305;SDS011;137;48.578;9.180;2022-08-11T00:17:21;2.23;;;1.70;;
305;SDS011;137;48.578;9.180;2022-08-11T00:19:59;2.10;;;1.70;;
305;SDS011;137;48.578;9.180;2022-08-11T00:22:29;1.53;;;1.43;;
305;SDS011;137;48.578;9.180;2022-08-11T00:24:58;2.43;;;1.63;;
305;SDS011;137;48.578;9.180;2022-08-11T00:27:33;1.70;;;1.60;;
305;SDS011;137;48.578;9.180;2022-08-11T00:30:01;1.60;;;1.37;;
305;SDS011;137;48.578;9.180;2022-08-11T00:32:29;2.23;;;1.60;;
305;SDS011;137;48.578;9.180;2022-08-11T00:34:57;2.10;;;1.83;;
305;SDS011;137;48.578;9.180;2022-08-11T00:37:26;4.67;;;1.77;;
305;SDS011;137;48.578;9.180;2022-08-11T00:39:55;2.23;;;2.03;;
305;SDS011;137;48.578;9.180;2022-08-11T00:42:25;1.97;;;1.60;;
305;SDS011;137;48.578;9.180;2022-08-11T00:45:02;3.30;;;1.60;;
305;SDS011;137;48.578;9.180;2022-08-11T00:47:47;2.70;;;1.80;;
305;SDS011;137;48.578;9.180;2022-08-11T00:50:24;2.00;;;1.57;;
305;SDS011;137;48.578;9.180;2022-08-11T00:53:00;2.10;;;1.90;;
305;SDS011;137;48.578;9.180;2022-08-11T01:01:54;2.30;;;1.80;;
305;SDS011;137;48.578;9.180;2022-08-11T01:10:56;2.60;;;1.43;;
305;SDS011;137;48.578;9.180;2022-08-11T01:13:42;1.97;;;1.73;;
305;SDS011;137;48.578;9.180;2022-08-11T01:16:31;1.60;;;1.37;;
305;SDS011;137;48.578;9.180;2022-08-11T01:28:46;2.50;;;1.37;;
305;SDS011;137;48.578;9.180;2022-08-11T01:38:20;2.17;;;1.97;;
305;SDS011;137;48.578;9.180;2022-08-11T01:44:48;2.30;;;2.10;;
305;SDS011;137;48.578;9.180;2022-08-11T01:47:34;2.10;;;1.90;;
305;SDS011;137;48.578;9.180;2022-08-11T01:50:22;2.30;;;2.10;;
305;SDS011;137;48.578;9.180;2022-08-11T01:55:51;2.10;;;1.90;;
305;SDS011;137;48.578;9.180;2022-08-11T01:58:28;4.30;;;1.73;;
305;SDS011;137;48.578;9.180;2022-08-11T02:01:01;2.17;;;1.97;;
305;SDS011;137;48.578;9.180;2022-08-11T02:03:38;2.67;;;2.30;;
305;SDS011;137;48.578;9.180;2022-08-11T02:06:15;2.30;;;1.80;;
305;SDS011;137;48.578;9.180;2022-08-11T02:09:16;2.77;;;2.20;;
305;SDS011;137;48.578;9.180;2022-08-11T02:11:51;2.17;;;1.97;;
305;SDS011;137;48.578;9.180;2022-08-11T02:14:28;6.73;;;2.00;;
305;SDS011;137;48.578;9.180;2022-08-11T02:17:10;2.20;;;1.93;;
305;SDS011;137;48.578;9.180;2022-08-11T02:19:44;1.80;;;1.60;;
305;SDS011;137;48.578;9.180;2022-08-11T02:22:41;2.73;;;2.20;;
305;SDS011;137;48.578;9.180;2022-08-11T02:25:35;3.27;;;2.07;;
305;SDS011;137;48.578;9.180;2022-08-11T02:28:06;3.30;;;2.03;;
305;SDS011;137;48.578;9.180;2022-08-11T02:30:45;4.60;;;2.00;;
305;SDS011;137;48.578;9.180;2022-08-11T02:33:43;2.00;;;1.80;;
305;SDS011;137;48.578;9.180;2022-08-11T02:36:16;2.00;;;1.83;;
305;SDS011;137;48.578;9.180;2022-08-11T02:38:50;3.63;;;2.37;;
305;SDS011;137;48.578;9.180;2022-08-11T02:41:27;2.13;;;1.97;;
305;SDS011;137;48.578;9.180;2022-08-11T02:44:20;3.13;;;1.80;;
305;SDS011;137;48.578;9.180;2022-08-11T02:46:57;1.80;;;1.63;;
305;SDS011;137;48.578;9.180;2022-08-11T02:49:35;2.07;;;1.87;;
305;SDS011;137;48.578;9.180;2022-08-11T02:52:19;2.00;;;1.90;;
305;SDS011;137;48.578;9.180;2022-08-11T02:54:59;2.17;;;1.97;;
305;SDS011;137;48.578;9.180;2022-08-11T02:57:46;1.90;;;1.80;;
305;SDS011;137;48.578;9.180;2022-08-11T03:00:18;4.30;;;2.70;;
305;SDS011;137;48.578;9.180;2022-08-11T03:05:44;2.80;;;2.20;;
305;SDS011;137;48.578;9.180;2022-08-11T03:08:23;2.70;;;2.20;;
305;SDS011;137;48.578;9.180;2022-08-11T03:11:09;2.20;;;2.00;;
305;SDS011;137;48.578;9.180;2022-08-11T03:14:02;2.30;;;2.10;;
305;SDS011;137;48.578;9.180;2022-08-11T03:16:54;3.47;;;2.00;;
305;SDS011;137;48.578;9.180;2022-08-11T03:19:27;2.63;;;2.20;;
305;SDS011;137;48.578;9.180;2022-08-11T03:22:06;2.90;;;2.30;;
305;SDS011;137;48.578;9.180;2022-08-11T03:24:42;2.37;;;2.17;;
305;SDS011;137;48.578;9.180;2022-08-11T03:27:23;2.80;;;2.53;;
305;SDS011;137;48.578;9.180;2022-08-11T03:30:14;2.17;;;1.93;;
305;SDS011;137;48.578;9.180;2022-08-11T03:32:47;2.70;;;2.20;;
305;SDS011;137;48.578;9.180;2022-08-11T03:35:40;2.40;;;1.90;;
305;SDS011;137;48.578;9.180;2022-08-11T03:38:15;3.60;;;2.30;;
305;SDS011;137;48.578;9.180;2022-08-11T03:40:51;3.67;;;2.80;;
305;SDS011;137;48.578;9.180;2022-08-11T03:43:54;2.30;;;2.10;;
305;SDS011;137;48.578;9.180;2022-08-11T03:46:34;3.80;;;2.40;;
305;SDS011;137;48.578;9.180;2022-08-11T03:49:14;2.73;;;2.33;;
305;SDS011;137;48.578;9.180;2022-08-11T03:51:53;4.63;;;2.20;;
305;SDS011;137;48.578;9.180;2022-08-11T03:54:28;2.23;;;2.03;;
305;SDS011;137;48.578;9.180;2022-08-11T03:57:20;3.20;;;2.20;;
305;SDS011;137;48.578;9.180;2022-08-11T04:00:16;2.30;;;2.10;;
305;SDS011;137;48.578;9.180;2022-08-11T04:12:48;4.60;;;2.17;;
305;SDS011;137;48.578;9.180;2022-08-11T04:22:07;2.60;;;2.40;;
305;SDS011;137;48.578;9.180;2022-08-11T04:24:57;2.67;;;2.37;;
305;SDS011;137;48.578;9.180;2022-08-11T04:30:45;3.30;;;2.03;;
305;SDS011;137;48.578;9.180;2022-08-11T04:33:40;2.50;;;2.30;;
305;SDS011;137;48.578;9.180;2022-08-11T04:36:36;2.80;;;2.50;;
305;SDS011;137;48.578;9.180;2022-08-11T04:39:38;2.63;;;2.43;;
305;SDS011;137;48.578;9.180;2022-08-11T04:45:34;2.87;;;2.57;;
305;SDS011;137;48.578;9.180;2022-08-11T04:48:22;2.77;;;2.30;;
305;SDS011;137;48.578;9.180;2022-08-11T04:51:31;2.63;;;2.20;;
305;SDS011;137;48.578;9.180;2022-08-11T04:55:02;3.90;;;2.70;;
305;SDS011;137;48.578;9.180;2022-08-11T04:58:08;4.63;;;2.93;;
305;SDS011;137;48.578;9.180;2022-08-11T05:01:03;3.23;;;2.93;;
305;SDS011;137;48.578;9.180;2022-08-11T05:04:10;3.30;;;2.97;;
305;SDS011;137;48.578;9.180;2022-08-11T05:10:46;5.63;;;3.07;;
305;SDS011;137;48.578;9.180;2022-08-11T05:13:23;3.83;;;3.40;;
305;SDS011;137;48.578;9.180;2022-08-11T05:16:12;5.70;;;4.10;;
305;SDS011;137;48.578;9.180;2022-08-11T05:19:01;3.20;;;2.77;;
305;SDS011;137;48.578;9.180;2022-08-11T05:21:52;5.53;;;3.10;;
305;SDS011;137;48.578;9.180;2022-08-11T05:24:40;3.57;;;3.27;;
305;SDS011;137;48.578;9.180;2022-08-11T05:27:31;3.50;;;2.60;;
305;SDS011;137;48.578;9.180;2022-08-11T05:30:19;3.10;;;2.80;;
305;SDS011;137;48.578;9.180;2022-08-11T05:33:09;4.77;;;2.47;;
305;SDS011;137;48.578;9.180;2022-08-11T05:35:59;2.50;;;2.30;;
305;SDS011;137;48.578;9.180;2022-08-11T05:38:33;3.50;;;2.70;;
305;SDS011;137;48.578;9.180;2022-08-11T05:41:19;6.03;;;2.23;;
305;SDS011;137;48.578;9.180;2022-08-11T05:44:09;3.97;;;2.57;;
305;SDS011;137;48.578;9.180;2022-08-11T05:47:00;9.97;;;2.67;;
305;SDS011;137;48.578;9.180;2022-08-11T05:49:47;5.83;;;3.57;;
305;SDS011;137;48.578;9.180;2022-08-11T05:52:33;3.03;;;2.70;;
305;SDS011;137;48.578;9.180;2022-08-11T05:55:18;4.00;;;3.20;;
305;SDS011;137;48.578;9.180;2022-08-11T05:58:04;3.30;;;2.60;;
305;SDS011;137;48.578;9.180;2022-08-11T06:00:41;3.20;;;2.30;;
305;SDS011;137;48.578;9.180;2022-08-11T06:03:09;3.60;;;3.30;;
305;SDS011;137;48.578;9.180;2022-08-11T06:05:37;3.07;;;2.87;;
305;SDS011;137;48.578;9.180;2022-08-11T06:08:06;2.47;;;1.93;;
305;SDS011;137;48.578;9.180;2022-08-11T06:10:35;3.33;;;2.97;;
305;SDS011;137;48.578;9.180;2022-08-11T06:13:03;3.97;;;2.70;;
305;SDS011;137;48.578;9.180;2022-08-11T06:15:33;4.97;;;2.83;;
305;SDS011;137;48.578;9.180;2022-08-11T06:18:10;3.30;;;2.87;;
305;SDS011;137;48.578;9.180;2022-08-11T06:20:44;2.80;;;2.60;;
305;SDS011;137;48.578;9.180;2022-08-11T06:23:12;3.60;;;2.90;;
305;SDS011;137;48.578;9.180;2022-08-11T06:25:42;4.67;;;3.83;;
305;SDS011;137;48.578;9.180;2022-08-11T06:28:09;5.00;;;3.93;;
305;SDS011;137;48.578;9.180;2022-08-11T06:30:38;3.67;;;3.13;;
305;SDS011;137;48.578;9.180;2022-08-11T06:33:07;4.10;;;3.13;;
305;SDS011;137;48.578;9.180;2022-08-11T06:35:43;4.80;;;2.90;;
305;SDS011;137;48.578;9.180;2022-08-11T06:38:14;7.33;;;2.90;;
305;SDS011;137;48.578;9.180;2022-08-11T06:41:02;2.90;;;2.60;;
305;SDS011;137;48.578;9.180;2022-08-11T06:43:52;3.60;;;3.30;;
305;SDS011;137;48.578;9.180;2022-08-11T06:46:35;4.33;;;3.10;;
305;SDS011;137;48.578;9.180;2022-08-11T06:49:06;3.30;;;3.00;;
305;SDS011;137;48.578;9.180;2022-08-11T06:51:54;3.60;;;2.83;;
305;SDS011;137;48.578;9.180;2022-08-11T06:54:22;6.03;;;2.70;;
305;SDS011;137;48.578;9.180;2022-08-11T06:56:51;4.50;;;2.90;;
305;SDS011;137;48.578;9.180;2022-08-11T06:59:35;2.87;;;2.67;;
305;SDS011;137;48.578;9.180;2022-08-11T07:02:21;3.63;;;3.33;;
305;SDS011;137;48.578;9.180;2022-08-11T07:04:55;3.47;;;2.50;;
305;SDS011;137;48.578;9.180;2022-08-11T07:10:46;5.17;;;2.83;;
305;SDS011;137;48.578;9.180;2022-08-11T07:13:44;4.90;;;3.00;;
305;SDS011;137;48.578;9.180;2022-08-11T07:16:29;4.50;;;3.43;;
305;SDS011;137;48.578;9.180;2022-08-11T07:19:00;3.00;;;2.70;;
305;SDS011;137;48.578;9.180;2022-08-11T07:21:47;3.30;;;2.97;;
305;SDS011;137;48.578;9.180;2022-08-11T07:24:34;4.80;;;2.20;;
305;SDS011;137;48.578;9.180;2022-08-11T07:27:27;5.00;;;3.07;;
305;SDS011;137;48.578;9.180;2022-08-11T07:30:18;4.40;;;3.60;;
305;SDS011;137;48.578;9.180;2022-08-11T07:32:47;4.90;;;2.40;;
305;SDS011;137;48.578;9.180;2022-08-11T07:35:18;7.00;;;2.83;;
305;SDS011;137;48.578;9.180;2022-08-11T07:37:52;3.50;;;2.90;;
305;SDS011;137;48.578;9.180;2022-08-11T07:40:23;3.67;;;3.17;;
305;SDS011;137;48.578;9.180;2022-08-11T07:42:50;3.27;;;2.73;;
305;SDS011;137;48.578;9.180;2022-08-11T07:45:19;11.37;;;3.60;;
305;SDS011;137;48.578;9.180;2022-08-11T07:48:05;7.30;;;3.60;;
305;SDS011;137;48.578;9.180;2022-08-11T07:50:50;3.80;;;2.60;;
305;SDS011;137;48.578;9.180;2022-08-11T07:53:37;3.00;;;2.50;;
305;SDS011;137;48.578;9.180;2022-08-11T07:56:04;7.27;;;3.27;;
305;SDS011;137;48.578;9.180;2022-08-11T07:58:33;5.03;;;2.93;;
305;SDS011;137;48.578;9.180;2022-08-11T08:01:19;5.73;;;2.80;;
305;SDS011;137;48.578;9.180;2022-08-11T08:04:06;2.90;;;2.30;;
305;SDS011;137;48.578;9.180;2022-08-11T08:06:53;3.37;;;2.63;;
305;SDS011;137;48.578;9.180;2022-08-11T08:09:39;2.73;;;2.40;;
305;SDS011;137;48.578;9.180;2022-08-11T08:12:25;4.67;;;3.47;;
305;SDS011;137;48.578;9.180;2022-08-11T08:15:11;7.00;;;2.53;;
305;SDS011;137;48.578;9.180;2022-08-11T08:17:58;3.10;;;2.30;;
305;SDS011;137;48.578;9.180;2022-08-11T08:20:28;3.50;;;3.20;;
305;SDS011;137;48.578;9.180;2022-08-11T08:22:57;5.00;;;2.70;;
305;SDS011;137;48.578;9.180;2022-08-11T08:25:28;2.90;;;2.70;;
305;SDS011;137;48.578;9.180;2022-08-11T08:27:57;3.23;;;2.30;;
305;SDS011;137;48.578;9.180;2022-08-11T08:30:25;5.50;;;3.70;;
305;SDS011;137;48.578;9.180;2022-08-11T08:33:11;5.77;;;2.47;;
305;SDS011;137;48.578;9.180;2022-08-11T08:35:40;3.23;;;3.03;;
305;SDS011;137;48.578;9.180;2022-08-11T08:38:08;2.63;;;2.43;;
305;SDS011;137;48.578;9.180;2022-08-11T08:40:37;6.60;;;3.37;;
305;SDS011;137;48.578;9.180;2022-08-11T08:43:08;4.07;;;3.53;;
305;SDS011;137;48.578;9.180;2022-08-11T08:45:39;2.63;;;2.37;;
305;SDS011;137;48.578;9.180;2022-08-11T08:48:07;7.77;;;2.77;;
305;SDS011;137;48.578;9.180;2022-08-11T08:50:41;2.50;;;2.00;;
305;SDS011;137;48.578;9.180;2022-08-11T08:53:29;3.23;;;2.43;;
305;SDS011;137;48.578;9.180;2022-08-11T08:56:01;5.20;;;2.67;;
305;SDS011;137;48.578;9.180;2022-08-11T08:58:29;3.73;;;2.50;;
305;SDS011;137;48.578;9.180;2022-08-11T09:00:59;2.47;;;2.27;;
305;SDS011;137;48.578;9.180;2022-08-11T09:03:26;3.40;;;2.70;;
305;SDS011;137;48.578;9.180;2022-08-11T09:05:54;3.13;;;2.80;;
305;SDS011;137;48.578;9.180;2022-08-11T09:08:22;3.43;;;2.87;;
305;SDS011;137;48.578;9.180;2022-08-11T09:10:50;3.00;;;2.17;;
305;SDS011;137;48.578;9.180;2022-08-11T09:13:33;2.20;;;2.00;;
305;SDS011;137;48.578;9.180;2022-08-11T09:16:00;2.97;;;2.67;;
305;SDS011;137;48.578;9.180;2022-08-11T09:18:28;3.50;;;2.47;;
305;SDS011;137;48.578;9.180;2022-08-11T09:20:56;3.03;;;2.30;;
305;SDS011;137;48.578;9.180;2022-08-11T09:23:24;2.47;;;1.77;;
305;SDS011;137;48.578;9.180;2022-08-11T09:26:08;2.07;;;1.97;;
305;SDS011;137;48.578;9.180;2022-08-11T09:28:55;3.63;;;2.30;;
305;SDS011;137;48.578;9.180;2022-08-11T09:31:24;2.20;;;2.00;;
305;SDS011;137;48.578;9.180;2022-08-11T09:33:53;2.30;;;2.10;;
305;SDS011;137;48.578;9.180;2022-08-11T09:36:20;2.90;;;1.93;;
305;SDS011;137;48.578;9.180;2022-08-11T09:39:04;2.77;;;1.90;;
305;SDS011;137;48.578;9.180;2022-08-11T09:41:49;3.57;;;2.30;;
305;SDS011;137;48.578;9.180;2022-08-11T09:44:19;2.93;;;1.80;;
305;SDS011;137;48.578;9.180;2022-08-11T09:47:04;2.67;;;1.80;;
305;SDS011;137;48.578;9.180;2022-08-11T09:49:37;3.57;;;2.07;;
305;SDS011;137;48.578;9.180;2022-08-11T09:52:05;2.40;;;2.20;;
305;SDS011;137;48.578;9.180;2022-08-11T09:54:33;5.80;;;2.30;;
305;SDS011;137;48.578;9.180;2022-08-11T09:57:00;1.70;;;1.60;;
305;SDS011;137;48.578;9.180;2022-08-11T09:59:46;2.00;;;1.87;;
305;SDS011;137;48.578;9.180;2022-08-11T10:02:13;2.50;;;1.40;;
305;SDS011;137;48.578;9.180;2022-08-11T10:04:43;2.23;;;1.83;;
305;SDS011;137;48.578;9.180;2022-08-11T10:07:11;4.57;;;1.80;;
305;SDS011;137;48.578;9.180;2022-08-11T10:09:41;4.20;;;1.53;;
305;SDS011;137;48.578;9.180;2022-08-11T10:12:13;2.20;;;1.63;;
305;SDS011;137;48.578;9.180;2022-08-11T10:14:51;3.03;;;1.60;;
305;SDS011;137;48.578;9.180;2022-08-11T10:17:38;1.40;;;1.30;;
305;SDS011;137;48.578;9.180;2022-08-11T10:20:29;2.43;;;1.40;;
305;SDS011;137;48.578;9.180;2022-08-11T10:22:58;4.13;;;1.60;;
305;SDS011;137;48.578;9.180;2022-08-11T10:25:44;1.70;;;1.33;;
305;SDS011;137;48.578;9.180;2022-08-11T10:28:47;3.93;;;1.50;;
305;SDS011;137;48.578;9.180;2022-08-11T10:31:16;1.50;;;1.40;;
305;SDS011;137;48.578;9.180;2022-08-11T10:34:03;2.20;;;2.00;;
305;SDS011;137;48.578;9.180;2022-08-11T10:36:31;4.63;;;1.60;;
305;SDS011;137;48.578;9.180;2022-08-11T10:39:06;2.23;;;1.50;;
305;SDS011;137;48.578;9.180;2022-08-11T10:41:34;2.73;;;1.80;;
305;SDS011;137;48.578;9.180;2022-08-11T10:44:19;1.90;;;1.80;;
305;SDS011;137;48.578;9.180;2022-08-11T10:46:49;3.30;;;1.70;;
305;SDS011;137;48.578;9.180;2022-08-11T10:49:35;3.30;;;1.60;;
305;SDS011;137;48.578;9.180;2022-08-11T10:52:02;1.67;;;1.40;;
305;SDS011;137;48.578;9.180;2022-08-11T10:54:47;3.47;;;1.90;;
305;SDS011;137;48.578;9.180;2022-08-11T10:57:32;2.00;;;1.80;;
305;SDS011;137;48.578;9.180;2022-08-11T11:00:16;1.70;;;1.60;;
305;SDS011;137;48.578;9.180;2022-08-11T11:02:45;2.10;;;1.67;;
305;SDS011;137;48.578;9.180;2022-08-11T11:05:13;2.43;;;1.80;;
305;SDS011;137;48.578;9.180;2022-08-11T11:07:46;1.73;;;1.37;;
305;SDS011;137;48.578;9.180;2022-08-11T11:10:20;3.67;;;1.67;;
305;SDS011;137;48.578;9.180;2022-08-11T11:12:49;3.40;;;1.70;;
305;SDS011;137;48.578;9.180;2022-08-11T11:15:36;2.37;;;1.70;;
305;SDS011;137;48.578;9.180;2022-08-11T11:18:26;2.07;;;1.30;;
305;SDS011;137;48.578;9.180;2022-08-11T11:20:54;2.20;;;1.53;;
305;SDS011;137;48.578;9.180;2022-08-11T11:23:25;1.53;;;1.43;;
305;SDS011;137;48.578;9.180;2022-08-11T11:29:06;1.83;;;1.17;;
305;SDS011;137;48.578;9.180;2022-08-11T11:31:54;2.80;;;1.40;;
305;SDS011;137;48.578;9.180;2022-08-11T11:37:29;1.53;;;1.43;;
305;SDS011;137;48.578;9.180;2022-08-11T11:39:59;5.37;;;1.73;;
305;SDS011;137;48.578;9.180;2022-08-11T11:42:28;1.80;;;1.30;;
305;SDS011;137;48.578;9.180;2022-08-11T11:44:55;4.13;;;1.87;;
305;SDS011;137;48.578;9.180;2022-08-11T11:47:23;4.60;;;1.63;;
305;SDS011;137;48.578;9.180;2022-08-11T11:49:51;1.67;;;1.57;;
305;SDS011;137;48.578;9.180;2022-08-11T11:52:20;1.50;;;1.20;;
305;SDS011;137;48.578;9.180;2022-08-11T11:54:50;3.37;;;1.27;;
305;SDS011;137;48.578;9.180;2022-08-11T11:57:19;1.50;;;1.30;;
305;SDS011;137;48.578;9.180;2022-08-11T12:00:05;2.37;;;1.77;;
305;SDS011;137;48.578;9.180;2022-08-11T12:02:52;2.43;;;1.73;;
305;SDS011;137;48.578;9.180;2022-08-11T12:05:20;4.83;;;1.93;;
305;SDS011;137;48.578;9.180;2022-08-11T12:07:49;1.80;;;1.70;;
305;SDS011;137;48.578;9.180;2022-08-11T12:10:45;1.70;;;1.60;;
305;SDS011;137;48.578;9.180;2022-08-11T12:13:13;1.50;;;1.40;;
305;SDS011;137;48.578;9.180;2022-08-11T12:16:00;3.03;;;1.63;;
305;SDS011;137;48.578;9.180;2022-08-11T12:18:30;2.30;;;1.80;;
305;SDS011;137;48.578;9.180;2022-08-11T12:20:59;3.23;;;1.77;;
305;SDS011;137;48.578;9.180;2022-08-11T12:23:28;2.73;;;1.50;;
305;SDS011;137;48.578;9.180;2022-08-11T12:26:13;1.50;;;1.33;;
305;SDS011;137;48.578;9.180;2022-08-11T12:28:59;2.00;;;1.80;;
305;SDS011;137;48.578;9.180;2022-08-11T12:31:27;2.10;;;1.77;;
305;SDS011;137;48.578;9.180;2022-08-11T12:33:59;2.17;;;1.50;;
305;SDS011;137;48.578;9.180;2022-08-11T12:36:26;2.70;;;1.60;;
305;SDS011;137;48.578;9.180;2022-08-11T12:38:55;1.70;;;1.60;;
305;SDS011;137;48.578;9.180;2022-08-11T12:41:23;3.13;;;1.63;;
305;SDS011;137;48.578;9.180;2022-08-11T12:44:09;2.13;;;1.53;;
305;SDS011;137;48.578;9.180;2022-08-11T12:47:01;2.20;;;1.30;;
305;SDS011;137;48.578;9.180;2022-08-11T12:49:30;4.03;;;1.30;;
305;SDS011;137;48.578;9.180;2022-08-11T12:52:21;2.00;;;1.40;;
305;SDS011;137;48.578;9.180;2022-08-11T12:54:58;1.60;;;1.30;;
305;SDS011;137;48.578;9.180;2022-08-11T12:57:29;3.97;;;1.80;;
305;SDS011;137;48.578;9.180;2022-08-11T13:00:15;2.83;;;2.23;;
305;SDS011;137;48.578;9.180;2022-08-11T13:03:01;3.70;;;2.43;;
305;SDS011;137;48.578;9.180;2022-08-11T13:05:48;2.33;;;1.50;;
305;SDS011;137;48.578;9.180;2022-08-11T13:08:18;3.43;;;1.47;;
305;SDS011;137;48.578;9.180;2022-08-11T13:10:50;1.50;;;1.23;;
305;SDS011;137;48.578;9.180;2022-08-11T13:13:36;3.63;;;1.53;;
305;SDS011;137;48.578;9.180;2022-08-11T13:16:06;1.40;;;1.20;;
305;SDS011;137;48.578;9.180;2022-08-11T13:18:34;2.37;;;1.50;;
305;SDS011;137;48.578;9.180;2022-08-11T13:21:06;1.50;;;1.33;;
305;SDS011;137;48.578;9.180;2022-08-11T13:23:35;2.00;;;1.80;;
305;SDS011;137;48.578;9.180;2022-08-11T13:26:06;5.80;;;5.30;;
305;SDS011;137;48.578;9.180;2022-08-11T13:28:34;3.87;;;1.80;;
305;SDS011;137;48.578;9.180;2022-08-11T13:31:01;1.40;;;1.30;;
305;SDS011;137;48.578;9.180;2022-08-11T13:33:39;3.97;;;1.40;;
305;SDS011;137;48.578;9.180;2022-08-11T13:36:08;1.30;;;1.20;;
305;SDS011;137;48.578;9.180;2022-08-11T13:38:36;2.23;;;1.40;;
305;SDS011;137;48.578;9.180;2022-08-11T13:41:07;3.03;;;1.40;;
305;SDS011;137;48.578;9.180;2022-08-11T13:43:48;2.57;;;2.23;;
305;SDS011;137;48.578;9.180;2022-08-11T13:46:16;1.60;;;1.50;;
305;SDS011;137;48.578;9.180;2022-08-11T13:48:48;4.17;;;3.77;;
305;SDS011;137;48.578;9.180;2022-08-11T13:51:16;1.73;;;1.60;;
305;SDS011;137;48.578;9.180;2022-08-11T13:53:58;4.43;;;2.30;;
305;SDS011;137;48.578;9.180;2022-08-11T13:56:28;3.60;;;2.03;;
305;SDS011;137;48.578;9.180;2022-08-11T13:58:57;1.40;;;1.30;;
305;SDS011;137;48.578;9.180;2022-08-11T14:01:27;2.30;;;1.77;;
305;SDS011;137;48.578;9.180;2022-08-11T14:03:57;1.40;;;1.30;;
305;SDS011;137;48.578;9.180;2022-08-11T14:06:28;1.70;;;1.60;;
305;SDS011;137;48.578;9.180;2022-08-11T14:08:55;2.00;;;1.23;;
305;SDS011;137;48.578;9.180;2022-08-11T14:11:23;4.13;;;1.50;;
305;SDS011;137;48.578;9.180;2022-08-11T14:14:11;3.23;;;1.90;;
305;SDS011;137;48.578;9.180;2022-08-11T14:16:43;2.63;;;1.33;;
305;SDS011;137;48.578;9.180;2022-08-11T14:19:12;2.27;;;1.60;;
305;SDS011;137;48.578;9.180;2022-08-11T14:21:42;2.20;;;1.60;;
305;SDS011;137;48.578;9.180;2022-08-11T14:24:29;2.37;;;1.67;;
305;SDS011;137;48.578;9.180;2022-08-11T14:26:57;4.23;;;1.37;;
305;SDS011;137;48.578;9.180;2022-08-11T14:29:27;1.73;;;1.53;;
305;SDS011;137;48.578;9.180;2022-08-11T14:31:57;2.30;;;1.43;;
305;SDS011;137;48.578;9.180;2022-08-11T14:34:27;1.77;;;1.40;;
305;SDS011;137;48.578;9.180;2022-08-11T14:36:55;2.77;;;1.87;;
305;SDS011;137;48.578;9.180;2022-08-11T14:39:25;3.30;;;1.67;;
305;SDS011;137;48.578;9.180;2022-08-11T14:41:54;3.37;;;2.07;;
305;SDS011;137;48.578;9.180;2022-08-11T14:44:42;2.57;;;1.60;;
305;SDS011;137;48.578;9.180;2022-08-11T14:47:28;2.90;;;2.17;;
305;SDS011;137;48.578;9.180;2022-08-11T14:49:58;3.20;;;1.90;;
305;SDS011;137;48.578;9.180;2022-08-11T14:52:26;2.97;;;1.80;;
305;SDS011;137;48.578;9.180;2022-08-11T14:54:56;3.60;;;2.27;;
305;SDS011;137;48.578;9.180;2022-08-11T14:57:41;4.40;;;3.37;;
305;SDS011;137;48.578;9.180;2022-08-11T15:00:12;2.60;;;1.80;;
305;SDS011;137;48.578;9.180;2022-08-11T15:02:42;3.17;;;2.13;;
305;SDS011;137;48.578;9.180;2022-08-11T15:05:28;3.37;;;2.50;;
305;SDS011;137;48.578;9.180;2022-08-11T15:07:56;1.83;;;1.60;;
305;SDS011;137;48.578;9.180;2022-08-11T15:10:24;2.13;;;1.93;;
305;SDS011;137;48.578;9.180;2022-08-11T15:12:51;4.83;;;2.47;;
305;SDS011;137;48.578;9.180;2022-08-11T15:15:20;2.27;;;1.77;;
305;SDS011;137;48.578;9.180;2022-08-11T15:18:05;2.00;;;1.80;;
305;SDS011;137;48.578;9.180;2022-08-11T15:20:35;2.80;;;1.63;;
305;SDS011;137;48.578;9.180;2022-08-11T15:23:20;1.90;;;1.70;;
305;SDS011;137;48.578;9.180;2022-08-11T15:26:06;1.87;;;1.77;;
305;SDS011;137;48.578;9.180;2022-08-11T15:28:38;2.50;;;2.10;;
305;SDS011;137;48.578;9.180;2022-08-11T15:31:28;2.20;;;1.90;;
305;SDS011;137;48.578;9.180;2022-08-11T15:34:13;3.10;;;1.70;;
305;SDS011;137;48.578;9.180;2022-08-11T15:37:01;2.80;;;2.00;;
305;SDS011;137;48.578;9.180;2022-08-11T15:39:50;1.67;;;1.57;;
305;SDS011;137;48.578;9.180;2022-08-11T15:42:39;3.30;;;1.73;;
305;SDS011;137;48.578;9.180;2022-08-11T15:45:31;3.73;;;1.70;;
305;SDS011;137;48.578;9.180;2022-08-11T15:48:17;2.13;;;1.93;;
305;SDS011;137;48.578;9.180;2022-08-11T15:50:53;2.97;;;1.97;;
305;SDS011;137;48.578;9.180;2022-08-11T15:53:25;2.00;;;1.40;;
305;SDS011;137;48.578;9.180;2022-08-11T15:55:56;1.90;;;1.80;;
305;SDS011;137;48.578;9.180;2022-08-11T15:58:25;4.23;;;2.20;;
305;SDS011;137;48.578;9.180;2022-08-11T16:01:14;11.90;;;4.10;;
305;SDS011;137;48.578;9.180;2022-08-11T16:04:05;3.90;;;1.90;;
305;SDS011;137;48.578;9.180;2022-08-11T16:09:26;3.90;;;1.57;;
305;SDS011;137;48.578;9.180;2022-08-11T16:11:58;2.60;;;2.40;;
305;SDS011;137;48.578;9.180;2022-08-11T16:14:27;1.47;;;1.37;;
305;SDS011;137;48.578;9.180;2022-08-11T16:17:17;2.87;;;1.80;;
305;SDS011;137;48.578;9.180;2022-08-11T16:19:49;2.97;;;2.10;;
305;SDS011;137;48.578;9.180;2022-08-11T16:22:20;2.07;;;1.40;;
305;SDS011;137;48.578;9.180;2022-08-11T16:24:58;2.07;;;1.60;;
305;SDS011;137;48.578;9.180;2022-08-11T16:27:28;3.50;;;1.40;;
305;SDS011;137;48.578;9.180;2022-08-11T16:29:58;3.37;;;2.17;;
305;SDS011;137;48.578;9.180;2022-08-11T16:32:26;1.70;;;1.60;;
305;SDS011;137;48.578;9.180;2022-08-11T16:34:59;1.63;;;1.43;;
305;SDS011;137;48.578;9.180;2022-08-11T16:37:46;1.57;;;1.47;;
305;SDS011;137;48.578;9.180;2022-08-11T16:40:31;5.70;;;1.60;;
305;SDS011;137;48.578;9.180;2022-08-11T16:42:59;3.43;;;1.50;;
305;SDS011;137;48.578;9.180;2022-08-11T16:45:46;1.70;;;1.50;;
305;SDS011;137;48.578;9.180;2022-08-11T16:48:32;2.63;;;1.80;;
305;SDS011;137;48.578;9.180;2022-08-11T16:51:02;3.57;;;2.90;;
305;SDS011;137;48.578;9.180;2022-08-11T16:53:30;2.00;;;1.80;;
305;SDS011;137;48.578;9.180;2022-08-11T16:55:58;5.43;;;2.00;;
305;SDS011;137;48.578;9.180;2022-08-11T16:58:29;4.80;;;2.43;;
305;SDS011;137;48.578;9.180;2022-08-11T17:01:16;3.13;;;2.83;;
305;SDS011;137;48.578;9.180;2022-08-11T17:03:46;2.70;;;1.60;;
305;SDS011;137;48.578;9.180;2022-08-11T17:06:37;3.03;;;1.47;;
305;SDS011;137;48.578;9.180;2022-08-11T17:09:26;2.90;;;1.70;;
305;SDS011;137;48.578;9.180;2022-08-11T17:12:12;3.10;;;1.77;;
305;SDS011;137;48.578;9.180;2022-08-11T17:14:59;2.07;;;1.87;;
305;SDS011;137;48.578;9.180;2022-08-11T17:17:29;4.70;;;1.67;;
305;SDS011;137;48.578;9.180;2022-08-11T17:20:02;2.07;;;1.60;;
305;SDS011;137;48.578;9.180;2022-08-11T17:22:35;2.63;;;1.27;;
305;SDS011;137;48.578;9.180;2022-08-11T17:25:21;2.17;;;1.97;;
305;SDS011;137;48.578;9.180;2022-08-11T17:27:52;5.07;;;1.90;;
305;SDS011;137;48.578;9.180;2022-08-11T17:30:20;3.80;;;1.80;;
305;SDS011;137;48.578;9.180;2022-08-11T17:33:08;4.67;;;2.20;;
305;SDS011;137;48.578;9.180;2022-08-11T17:35:55;1.90;;;1.70;;
305;SDS011;137;48.578;9.180;2022-08-11T17:38:24;2.77;;;1.90;;
305;SDS011;137;48.578;9.180;2022-08-11T17:40:54;3.10;;;1.60;;
305;SDS011;137;48.578;9.180;2022-08-11T17:43:41;2.13;;;1.70;;
305;SDS011;137;48.578;9.180;2022-08-11T17:46:27;4.30;;;2.17;;
305;SDS011;137;48.578;9.180;2022-08-11T17:49:13;4.70;;;4.30;;
305;SDS011;137;48.578;9.180;2022-08-11T17:51:43;3.90;;;2.93;;
305;SDS011;137;48.578;9.180;2022-08-11T17:54:31;3.00;;;1.87;;
305;SDS011;137;48.578;9.180;2022-08-11T17:57:17;1.57;;;1.27;;
305;SDS011;137;48.578;9.180;2022-08-11T18:00:04;1.90;;;1.70;;
305;SDS011;137;48.578;9.180;2022-08-11T18:02:32;2.70;;;1.60;;
305;SDS011;137;48.578;9.180;2022-08-11T18:05:19;3.60;;;2.27;;
305;SDS011;137;48.578;9.180;2022-08-11T18:07:49;1.77;;;1.60;;
305;SDS011;137;48.578;9.180;2022-08-11T18:10:37;2.17;;;1.70;;